Key West, Florida
Current Conditions -  °F | °C
As of 4:53 AM on Monday 22 Dec 2014 (Local Time) from KEYW Reporting Station
Broken Clouds Broken Clouds  
Wind Chill: 24°   Ceiling: 10000
Heat Index: 24°   Visibility: 10mi
Dew Point: 22°   Wind: 8mph
Humidity: 87%   Direction: 120°ESE
Pressure: 29.99"   Gusts: NA
Location:  24.55°N, 81.8°W
Report Text: KEYW 220953Z AUTO 12007KT 10SM SCT017 SCT022 BKN100 24/22 A2999 RMK AO2 SLP154 T02390217
Loading
Personal Weather Stations






























Interactive Weather Map New forecast layout! Learn more

10-Day Weather Forecast

Advertisements
Track Severe Weather on mobile